createdAt,value
2023-02-19T00:09:50.525Z,1004
2023-02-19T00:19:57.073Z,1003.8
2023-02-19T00:30:03.650Z,1003.8
2023-02-19T00:40:10.251Z,1003.9
2023-02-19T00:50:16.812Z,1003.7
2023-02-19T01:00:23.392Z,1003.7
2023-02-19T01:10:29.984Z,1003.5
2023-02-19T01:20:36.555Z,1003.5
2023-02-19T01:30:43.144Z,1003.4
2023-02-19T01:40:49.708Z,1003.4
2023-02-19T01:50:56.305Z,1003.3
2023-02-19T02:01:02.139Z,1003.2
2023-02-19T02:11:08.741Z,1003.1
2023-02-19T02:21:15.332Z,1003.1
2023-02-19T02:31:21.891Z,1002.9
2023-02-19T02:41:28.618Z,1002.9
2023-02-19T02:51:35.060Z,1002.9
2023-02-19T03:01:41.636Z,1002.7
2023-02-19T03:11:48.223Z,1002.6
2023-02-19T03:21:54.790Z,1002.7
2023-02-19T03:32:01.374Z,1002.7
2023-02-19T03:42:07.958Z,1002.6
2023-02-19T03:52:14.528Z,1002.8
2023-02-19T04:02:21.138Z,1002.9
2023-02-19T04:12:27.766Z,1002.9
2023-02-19T04:22:33.596Z,1002.9
2023-02-19T04:32:40.121Z,1002.9
2023-02-19T04:42:46.696Z,1003.1
2023-02-19T04:52:53.309Z,1003.2
2023-02-19T05:02:59.924Z,1003.3
2023-02-19T05:13:06.631Z,1003.2
2023-02-19T05:23:13.223Z,1003.4
2023-02-19T05:33:19.793Z,1003.4
2023-02-19T05:43:26.392Z,1003.5
2023-02-19T05:53:33.125Z,1003.7
2023-02-19T06:03:39.708Z,1003.8
2023-02-19T06:13:46.311Z,1004
2023-02-19T06:23:53.038Z,1004.1
2023-02-19T06:33:58.899Z,1004.3
2023-02-19T06:44:05.474Z,1004.4
2023-02-19T06:54:12.071Z,1004.5
2023-02-19T07:04:18.659Z,1004.6
2023-02-19T07:14:25.227Z,1004.7
2023-02-19T07:34:38.372Z,1004.9
2023-02-19T07:44:44.971Z,1005
2023-02-19T07:54:51.535Z,1005.2
2023-02-19T08:04:58.171Z,1005.5
2023-02-19T08:15:04.727Z,1005.6
2023-02-19T08:25:11.335Z,1005.8
2023-02-19T08:35:17.910Z,1006
2023-02-19T08:45:23.708Z,1006.1
2023-02-19T08:55:30.308Z,1006.1
2023-02-19T09:05:36.907Z,1006.2
2023-02-19T09:15:43.475Z,1006.4
2023-02-19T09:25:50.046Z,1006.5
2023-02-19T09:35:56.607Z,1006.5
2023-02-19T09:46:03.202Z,1006.6
2023-02-19T09:56:09.908Z,1006.7
2023-02-19T10:06:16.510Z,1006.9
2023-02-19T10:16:23.075Z,1007.2
2023-02-19T10:26:29.612Z,1007.2
2023-02-19T10:36:36.376Z,1007.3
2023-02-19T10:46:42.992Z,1007.6
2023-02-19T10:56:49.548Z,1007.8
2023-02-19T11:06:55.455Z,1007.7
2023-02-19T11:17:02.031Z,1007.7
2023-02-19T11:27:08.618Z,1007.8
2023-02-19T11:37:15.164Z,1007.7
2023-02-19T11:47:21.748Z,1007.8
2023-02-19T11:57:28.303Z,1007.7
2023-02-19T12:07:34.888Z,1007.6
2023-02-19T12:17:41.471Z,1007.7
2023-02-19T12:27:48.069Z,1007.8
2023-02-19T12:37:54.622Z,1007.9
2023-02-19T12:48:00.533Z,1007.8
2023-02-19T12:58:07.108Z,1007.6
2023-02-19T13:08:13.680Z,1007.6
2023-02-19T13:18:20.300Z,1007.7
2023-02-19T13:28:26.854Z,1007.7
2023-02-19T13:38:33.428Z,1007.8
2023-02-19T13:48:40.004Z,1007.8
2023-02-19T13:58:46.588Z,1007.9
2023-02-19T14:08:53.209Z,1008
2023-02-19T14:18:59.768Z,1008.1
2023-02-19T14:29:06.411Z,1008.2
2023-02-19T14:39:12.903Z,1008.2
2023-02-19T14:49:19.487Z,1008.2
2023-02-19T14:59:25.339Z,1008.1
2023-02-19T15:09:31.921Z,1008.3
2023-02-19T15:19:38.524Z,1008.4
2023-02-19T15:29:45.090Z,1008.6
2023-02-19T15:39:51.689Z,1008.5
2023-02-19T15:49:58.258Z,1008.5
2023-02-19T16:00:04.847Z,1008.4
2023-02-19T16:10:11.527Z,1008.3
2023-02-19T16:20:18.145Z,1008.2
2023-02-19T16:30:24.681Z,1008.4
2023-02-19T16:40:31.454Z,1008.3
2023-02-19T16:50:38.048Z,1008.6
2023-02-19T17:00:44.629Z,1008.8
2023-02-19T17:10:51.365Z,1008.9
2023-02-19T17:20:57.962Z,1009.3
2023-02-19T17:31:03.818Z,1009.5
2023-02-19T17:41:10.378Z,1009.6
2023-02-19T17:51:16.963Z,1009.7
2023-02-19T18:01:23.543Z,1009.7
2023-02-19T18:11:30.127Z,1009.9
2023-02-19T18:21:36.709Z,1010.1
2023-02-19T18:31:43.281Z,1010
2023-02-19T18:41:49.868Z,1010.1
2023-02-19T18:51:56.448Z,1010.2
2023-02-19T19:02:03.018Z,1010
2023-02-19T19:12:09.610Z,1010
2023-02-19T19:22:16.203Z,1010.1
2023-02-19T19:32:22.767Z,1010.1
2023-02-19T19:42:29.358Z,1010.2
2023-02-19T19:52:35.199Z,1010.3
2023-02-19T20:02:41.789Z,1010.3
2023-02-19T20:12:48.333Z,1010.4
2023-02-19T20:22:54.937Z,1010.5
2023-02-19T20:33:01.528Z,1010.6
2023-02-19T20:43:08.138Z,1010.7
2023-02-19T20:53:14.736Z,1010.7
2023-02-19T21:03:21.299Z,1010.6
2023-02-19T21:13:27.906Z,1010.7
2023-02-19T21:23:34.660Z,1011
2023-02-19T21:33:41.203Z,1011.1
2023-02-19T21:43:47.791Z,1011.2
2023-02-19T21:53:54.528Z,1011.1
2023-02-19T22:04:00.374Z,1011.2
2023-02-19T22:14:06.945Z,1011.3
2023-02-19T22:24:13.545Z,1011.5
2023-02-19T22:44:26.702Z,1011.4
2023-02-19T22:54:33.295Z,1011.4
2023-02-19T23:04:39.856Z,1011.2
2023-02-19T23:14:46.419Z,1011.3
2023-02-19T23:34:59.574Z,1011.5
2023-02-19T23:45:06.140Z,1011.4
2023-02-19T23:55:12.780Z,1011.3
